sensor_id;sensor_type;location;lat;lon;timestamp;temperature;humidity
11152;DHT22;5630;49.342;10.802;2023-03-31T00:01:49;9.30;99.90
11152;DHT22;5630;49.342;10.802;2023-03-31T00:04:17;9.30;99.90
11152;DHT22;5630;49.342;10.802;2023-03-31T00:06:42;9.20;99.90
11152;DHT22;5630;49.342;10.802;2023-03-31T00:11:36;9.20;99.90
11152;DHT22;5630;49.342;10.802;2023-03-31T00:14:03;9.20;99.90
11152;DHT22;5630;49.342;10.802;2023-03-31T00:16:34;9.20;99.90
11152;DHT22;5630;49.342;10.802;2023-03-31T00:19:00;9.20;99.90
11152;DHT22;5630;49.342;10.802;2023-03-31T00:21:27;9.20;99.90
11152;DHT22;5630;49.342;10.802;2023-03-31T00:24:05;9.20;99.90
11152;DHT22;5630;49.342;10.802;2023-03-31T00:26:32;9.10;99.90
11152;DHT22;5630;49.342;10.802;2023-03-31T00:28:59;9.10;99.90
11152;DHT22;5630;49.342;10.802;2023-03-31T00:31:25;9.10;99.90
11152;DHT22;5630;49.342;10.802;2023-03-31T00:33:52;9.00;99.90
11152;DHT22;5630;49.342;10.802;2023-03-31T00:36:18;9.00;99.90
11152;DHT22;5630;49.342;10.802;2023-03-31T00:38:55;9.00;99.90
11152;DHT22;5630;49.342;10.802;2023-03-31T00:41:24;9.00;99.90
11152;DHT22;5630;49.342;10.802;2023-03-31T00:44:17;9.00;99.90
11152;DHT22;5630;49.342;10.802;2023-03-31T00:47:02;9.00;99.90
11152;DHT22;5630;49.342;10.802;2023-03-31T00:49:48;8.90;99.90
11152;DHT22;5630;49.342;10.802;2023-03-31T00:52:17;8.90;99.90
11152;DHT22;5630;49.342;10.802;2023-03-31T00:54:47;8.90;99.90
11152;DHT22;5630;49.342;10.802;2023-03-31T00:57:14;8.90;99.90
11152;DHT22;5630;49.342;10.802;2023-03-31T00:59:45;8.80;99.90
11152;DHT22;5630;49.342;10.802;2023-03-31T01:02:13;8.90;99.90
11152;DHT22;5630;49.342;10.802;2023-03-31T01:04:52;8.80;99.90
11152;DHT22;5630;49.342;10.802;2023-03-31T01:07:25;8.80;99.90
11152;DHT22;5630;49.342;10.802;2023-03-31T01:09:52;8.80;99.90
11152;DHT22;5630;49.342;10.802;2023-03-31T01:12:21;8.80;99.90
11152;DHT22;5630;49.342;10.802;2023-03-31T01:14:48;8.80;99.90
11152;DHT22;5630;49.342;10.802;2023-03-31T01:17:15;8.80;99.90
11152;DHT22;5630;49.342;10.802;2023-03-31T01:20:18;8.80;99.90
11152;DHT22;5630;49.342;10.802;2023-03-31T01:40:13;8.90;99.90
11152;DHT22;5630;49.342;10.802;2023-03-31T01:45:39;8.90;99.90
11152;DHT22;5630;49.342;10.802;2023-03-31T01:48:12;8.90;99.90
11152;DHT22;5630;49.342;10.802;2023-03-31T01:50:57;9.00;99.90
11152;DHT22;5630;49.342;10.802;2023-03-31T01:56:11;9.00;99.90
11152;DHT22;5630;49.342;10.802;2023-03-31T01:58:49;9.00;99.90
11152;DHT22;5630;49.342;10.802;2023-03-31T02:01:22;9.00;99.90
11152;DHT22;5630;49.342;10.802;2023-03-31T02:03:57;9.00;99.90
11152;DHT22;5630;49.342;10.802;2023-03-31T02:06:27;9.00;99.90
11152;DHT22;5630;49.342;10.802;2023-03-31T02:08:59;9.10;99.90
11152;DHT22;5630;49.342;10.802;2023-03-31T02:11:28;9.10;99.90
11152;DHT22;5630;49.342;10.802;2023-03-31T02:13:56;9.00;99.90
11152;DHT22;5630;49.342;10.802;2023-03-31T02:16:27;9.10;99.90
11152;DHT22;5630;49.342;10.802;2023-03-31T02:18:57;9.10;99.90
11152;DHT22;5630;49.342;10.802;2023-03-31T02:21:28;9.00;99.90
11152;DHT22;5630;49.342;10.802;2023-03-31T02:23:55;9.00;99.90
11152;DHT22;5630;49.342;10.802;2023-03-31T02:26:26;9.00;99.90
11152;DHT22;5630;49.342;10.802;2023-03-31T02:28:53;9.00;99.90
11152;DHT22;5630;49.342;10.802;2023-03-31T02:31:28;9.00;99.90
11152;DHT22;5630;49.342;10.802;2023-03-31T02:33:57;9.00;99.90
11152;DHT22;5630;49.342;10.802;2023-03-31T02:36:23;9.00;99.90
11152;DHT22;5630;49.342;10.802;2023-03-31T02:38:57;9.00;99.90
11152;DHT22;5630;49.342;10.802;2023-03-31T02:41:23;9.00;99.90
11152;DHT22;5630;49.342;10.802;2023-03-31T02:43:49;9.00;99.90
11152;DHT22;5630;49.342;10.802;2023-03-31T02:46:15;9.00;99.90
11152;DHT22;5630;49.342;10.802;2023-03-31T02:48:44;9.00;99.90
11152;DHT22;5630;49.342;10.802;2023-03-31T03:03:22;9.00;99.90
11152;DHT22;5630;49.342;10.802;2023-03-31T03:06:14;9.10;99.90
11152;DHT22;5630;49.342;10.802;2023-03-31T03:08:48;9.00;99.90
11152;DHT22;5630;49.342;10.802;2023-03-31T03:11:49;9.00;99.90
11152;DHT22;5630;49.342;10.802;2023-03-31T03:14:35;9.00;99.90
11152;DHT22;5630;49.342;10.802;2023-03-31T03:17:08;9.00;99.90
11152;DHT22;5630;49.342;10.802;2023-03-31T03:19:35;9.00;99.90
11152;DHT22;5630;49.342;10.802;2023-03-31T03:22:00;9.00;99.90
11152;DHT22;5630;49.342;10.802;2023-03-31T03:24:26;9.00;99.90
11152;DHT22;5630;49.342;10.802;2023-03-31T03:26:54;9.00;99.90
11152;DHT22;5630;49.342;10.802;2023-03-31T03:29:20;9.00;99.90
11152;DHT22;5630;49.342;10.802;2023-03-31T03:31:46;9.00;99.90
11152;DHT22;5630;49.342;10.802;2023-03-31T03:34:12;9.00;99.90
11152;DHT22;5630;49.342;10.802;2023-03-31T03:36:38;9.00;99.90
11152;DHT22;5630;49.342;10.802;2023-03-31T03:39:05;9.10;99.90
11152;DHT22;5630;49.342;10.802;2023-03-31T03:41:31;9.00;99.90
11152;DHT22;5630;49.342;10.802;2023-03-31T03:44:01;9.00;99.90
11152;DHT22;5630;49.342;10.802;2023-03-31T03:46:26;9.00;99.90
11152;DHT22;5630;49.342;10.802;2023-03-31T03:48:52;9.00;99.90
11152;DHT22;5630;49.342;10.802;2023-03-31T03:51:18;9.10;99.90
11152;DHT22;5630;49.342;10.802;2023-03-31T03:53:43;9.10;99.90
11152;DHT22;5630;49.342;10.802;2023-03-31T03:56:09;9.10;99.90
11152;DHT22;5630;49.342;10.802;2023-03-31T03:58:35;9.00;99.90
11152;DHT22;5630;49.342;10.802;2023-03-31T04:01:00;9.10;99.90
11152;DHT22;5630;49.342;10.802;2023-03-31T04:03:26;9.10;99.90
11152;DHT22;5630;49.342;10.802;2023-03-31T04:05:52;9.10;99.90
11152;DHT22;5630;49.342;10.802;2023-03-31T04:08:18;9.10;99.90
11152;DHT22;5630;49.342;10.802;2023-03-31T04:10:45;9.00;99.90
11152;DHT22;5630;49.342;10.802;2023-03-31T04:13:11;9.10;99.90
11152;DHT22;5630;49.342;10.802;2023-03-31T04:15:36;9.00;99.90
11152;DHT22;5630;49.342;10.802;2023-03-31T04:18:02;9.00;99.90
11152;DHT22;5630;49.342;10.802;2023-03-31T04:20:28;9.00;99.90
11152;DHT22;5630;49.342;10.802;2023-03-31T04:22:55;9.00;99.90
11152;DHT22;5630;49.342;10.802;2023-03-31T04:25:21;9.10;99.90
11152;DHT22;5630;49.342;10.802;2023-03-31T04:27:48;9.00;99.90
11152;DHT22;5630;49.342;10.802;2023-03-31T04:30:25;9.00;99.90
11152;DHT22;5630;49.342;10.802;2023-03-31T04:33:01;9.00;99.90
11152;DHT22;5630;49.342;10.802;2023-03-31T04:35:29;9.00;99.90
11152;DHT22;5630;49.342;10.802;2023-03-31T04:38:07;9.00;99.90
11152;DHT22;5630;49.342;10.802;2023-03-31T04:40:33;9.00;99.90
11152;DHT22;5630;49.342;10.802;2023-03-31T04:43:00;9.00;99.90
11152;DHT22;5630;49.342;10.802;2023-03-31T04:45:25;9.00;99.90
11152;DHT22;5630;49.342;10.802;2023-03-31T04:47:51;9.00;99.90
11152;DHT22;5630;49.342;10.802;2023-03-31T04:50:16;9.00;99.90
11152;DHT22;5630;49.342;10.802;2023-03-31T04:52:42;9.00;99.90
11152;DHT22;5630;49.342;10.802;2023-03-31T04:55:08;9.00;99.90
11152;DHT22;5630;49.342;10.802;2023-03-31T04:57:34;9.00;99.90
11152;DHT22;5630;49.342;10.802;2023-03-31T04:59:59;9.00;99.90
11152;DHT22;5630;49.342;10.802;2023-03-31T05:02:25;9.00;99.90
11152;DHT22;5630;49.342;10.802;2023-03-31T05:04:50;9.00;99.90
11152;DHT22;5630;49.342;10.802;2023-03-31T05:07:17;9.00;99.90
11152;DHT22;5630;49.342;10.802;2023-03-31T05:09:43;9.00;99.90
11152;DHT22;5630;49.342;10.802;2023-03-31T05:12:09;8.90;99.90
11152;DHT22;5630;49.342;10.802;2023-03-31T05:14:35;8.90;99.90
11152;DHT22;5630;49.342;10.802;2023-03-31T05:17:00;8.90;99.90
11152;DHT22;5630;49.342;10.802;2023-03-31T05:19:26;8.90;99.90
11152;DHT22;5630;49.342;10.802;2023-03-31T05:21:52;8.90;99.90
11152;DHT22;5630;49.342;10.802;2023-03-31T05:24:17;8.80;99.90
11152;DHT22;5630;49.342;10.802;2023-03-31T05:26:43;8.80;99.90
11152;DHT22;5630;49.342;10.802;2023-03-31T05:29:14;8.70;99.90
11152;DHT22;5630;49.342;10.802;2023-03-31T05:31:41;8.70;99.90
11152;DHT22;5630;49.342;10.802;2023-03-31T05:34:06;9.30;99.90
11152;DHT22;5630;49.342;10.802;2023-03-31T05:36:32;9.80;99.90
11152;DHT22;5630;49.342;10.802;2023-03-31T05:38:57;10.30;99.90
11152;DHT22;5630;49.342;10.802;2023-03-31T05:41:23;10.70;99.90
11152;DHT22;5630;49.342;10.802;2023-03-31T05:43:48;10.80;99.90
11152;DHT22;5630;49.342;10.802;2023-03-31T05:46:14;10.80;99.90
11152;DHT22;5630;49.342;10.802;2023-03-31T05:48:40;11.00;99.90
11152;DHT22;5630;49.342;10.802;2023-03-31T05:51:06;10.60;99.90
11152;DHT22;5630;49.342;10.802;2023-03-31T05:55:59;9.90;99.90
11152;DHT22;5630;49.342;10.802;2023-03-31T05:58:27;9.80;99.90
11152;DHT22;5630;49.342;10.802;2023-03-31T06:01:13;9.60;99.90
11152;DHT22;5630;49.342;10.802;2023-03-31T06:03:47;9.50;99.90
11152;DHT22;5630;49.342;10.802;2023-03-31T06:06:13;9.40;99.90
11152;DHT22;5630;49.342;10.802;2023-03-31T06:08:39;9.30;99.90
11152;DHT22;5630;49.342;10.802;2023-03-31T06:11:06;9.30;99.90
11152;DHT22;5630;49.342;10.802;2023-03-31T06:13:32;9.20;99.90
11152;DHT22;5630;49.342;10.802;2023-03-31T06:15:59;9.20;99.90
11152;DHT22;5630;49.342;10.802;2023-03-31T06:18:27;9.20;99.90
11152;DHT22;5630;49.342;10.802;2023-03-31T06:20:53;9.20;99.90
11152;DHT22;5630;49.342;10.802;2023-03-31T06:23:20;9.10;99.90
11152;DHT22;5630;49.342;10.802;2023-03-31T06:25:46;9.10;99.90
11152;DHT22;5630;49.342;10.802;2023-03-31T06:28:11;9.10;99.90
11152;DHT22;5630;49.342;10.802;2023-03-31T06:30:37;9.10;99.90
11152;DHT22;5630;49.342;10.802;2023-03-31T06:33:02;9.10;99.90
11152;DHT22;5630;49.342;10.802;2023-03-31T06:35:28;9.10;99.90
11152;DHT22;5630;49.342;10.802;2023-03-31T06:37:54;9.00;99.90
11152;DHT22;5630;49.342;10.802;2023-03-31T06:40:20;9.00;99.90
11152;DHT22;5630;49.342;10.802;2023-03-31T06:42:45;9.00;99.90
11152;DHT22;5630;49.342;10.802;2023-03-31T06:45:11;9.00;99.90
11152;DHT22;5630;49.342;10.802;2023-03-31T06:47:36;9.00;99.90
11152;DHT22;5630;49.342;10.802;2023-03-31T06:50:04;8.90;99.90
11152;DHT22;5630;49.342;10.802;2023-03-31T06:52:30;8.90;99.90
11152;DHT22;5630;49.342;10.802;2023-03-31T06:54:56;9.00;99.90
11152;DHT22;5630;49.342;10.802;2023-03-31T06:57:21;8.80;99.90
11152;DHT22;5630;49.342;10.802;2023-03-31T06:59:47;8.80;99.90
11152;DHT22;5630;49.342;10.802;2023-03-31T07:02:13;8.90;99.90
11152;DHT22;5630;49.342;10.802;2023-03-31T07:04:38;8.90;99.90
11152;DHT22;5630;49.342;10.802;2023-03-31T07:07:04;8.90;99.90
11152;DHT22;5630;49.342;10.802;2023-03-31T07:09:29;8.90;99.90
11152;DHT22;5630;49.342;10.802;2023-03-31T07:11:55;8.90;99.90
11152;DHT22;5630;49.342;10.802;2023-03-31T07:14:21;8.90;99.90
11152;DHT22;5630;49.342;10.802;2023-03-31T07:16:47;8.90;99.90
11152;DHT22;5630;49.342;10.802;2023-03-31T07:19:12;8.90;99.90
11152;DHT22;5630;49.342;10.802;2023-03-31T07:21:39;8.90;99.90
11152;DHT22;5630;49.342;10.802;2023-03-31T07:24:05;8.90;99.90
11152;DHT22;5630;49.342;10.802;2023-03-31T07:26:31;8.90;99.90
11152;DHT22;5630;49.342;10.802;2023-03-31T07:28:57;9.00;99.90
11152;DHT22;5630;49.342;10.802;2023-03-31T07:31:23;9.00;99.90
11152;DHT22;5630;49.342;10.802;2023-03-31T07:33:49;9.00;99.90
11152;DHT22;5630;49.342;10.802;2023-03-31T07:36:15;9.00;99.90
11152;DHT22;5630;49.342;10.802;2023-03-31T07:38:42;9.00;99.90
11152;DHT22;5630;49.342;10.802;2023-03-31T07:41:11;9.00;99.90
11152;DHT22;5630;49.342;10.802;2023-03-31T07:43:36;9.00;99.90
11152;DHT22;5630;49.342;10.802;2023-03-31T07:46:02;9.00;99.90
11152;DHT22;5630;49.342;10.802;2023-03-31T07:48:29;9.40;99.90
11152;DHT22;5630;49.342;10.802;2023-03-31T07:50:55;9.60;99.90
11152;DHT22;5630;49.342;10.802;2023-03-31T07:53:20;9.90;99.90
11152;DHT22;5630;49.342;10.802;2023-03-31T07:55:46;10.40;99.90
11152;DHT22;5630;49.342;10.802;2023-03-31T07:58:12;10.70;99.90
11152;DHT22;5630;49.342;10.802;2023-03-31T08:00:38;10.50;99.90
11152;DHT22;5630;49.342;10.802;2023-03-31T08:03:03;10.40;99.90
11152;DHT22;5630;49.342;10.802;2023-03-31T08:05:29;10.00;99.90
11152;DHT22;5630;49.342;10.802;2023-03-31T08:07:54;9.90;99.90
11152;DHT22;5630;49.342;10.802;2023-03-31T08:10:23;9.80;99.90
11152;DHT22;5630;49.342;10.802;2023-03-31T08:12:49;9.70;99.90
11152;DHT22;5630;49.342;10.802;2023-03-31T08:15:14;9.60;99.90
11152;DHT22;5630;49.342;10.802;2023-03-31T08:17:40;9.50;99.90
11152;DHT22;5630;49.342;10.802;2023-03-31T08:20:07;9.50;99.90
11152;DHT22;5630;49.342;10.802;2023-03-31T08:22:35;9.40;99.90
11152;DHT22;5630;49.342;10.802;2023-03-31T08:25:01;9.40;99.90
11152;DHT22;5630;49.342;10.802;2023-03-31T08:27:27;9.40;99.90
11152;DHT22;5630;49.342;10.802;2023-03-31T08:29:52;9.50;99.90
11152;DHT22;5630;49.342;10.802;2023-03-31T08:32:21;9.50;99.90
11152;DHT22;5630;49.342;10.802;2023-03-31T08:34:47;9.40;99.90
11152;DHT22;5630;49.342;10.802;2023-03-31T08:37:12;9.50;99.90
11152;DHT22;5630;49.342;10.802;2023-03-31T08:39:38;9.40;99.90
11152;DHT22;5630;49.342;10.802;2023-03-31T08:47:04;9.40;99.90
11152;DHT22;5630;49.342;10.802;2023-03-31T08:49:44;9.60;99.90
11152;DHT22;5630;49.342;10.802;2023-03-31T08:52:21;9.70;99.90
11152;DHT22;5630;49.342;10.802;2023-03-31T08:55:12;9.90;99.90
11152;DHT22;5630;49.342;10.802;2023-03-31T08:58:00;9.90;99.90
11152;DHT22;5630;49.342;10.802;2023-03-31T09:00:45;9.90;99.90
11152;DHT22;5630;49.342;10.802;2023-03-31T09:03:44;9.90;99.90
11152;DHT22;5630;49.342;10.802;2023-03-31T09:06:16;10.00;99.90
11152;DHT22;5630;49.342;10.802;2023-03-31T09:08:45;10.00;99.90
11152;DHT22;5630;49.342;10.802;2023-03-31T09:11:34;10.10;99.90
11152;DHT22;5630;49.342;10.802;2023-03-31T09:16:47;10.20;99.90
11152;DHT22;5630;49.342;10.802;2023-03-31T09:19:24;10.30;99.90
11152;DHT22;5630;49.342;10.802;2023-03-31T09:21:55;10.40;99.90
11152;DHT22;5630;49.342;10.802;2023-03-31T09:24:26;10.40;99.90
11152;DHT22;5630;49.342;10.802;2023-03-31T09:26:59;10.50;99.90
11152;DHT22;5630;49.342;10.802;2023-03-31T09:29:39;10.70;99.90
11152;DHT22;5630;49.342;10.802;2023-03-31T09:32:18;10.80;99.90
11152;DHT22;5630;49.342;10.802;2023-03-31T09:34:45;11.00;99.90
11152;DHT22;5630;49.342;10.802;2023-03-31T09:37:11;11.10;99.90
11152;DHT22;5630;49.342;10.802;2023-03-31T09:39:38;11.50;99.90
11152;DHT22;5630;49.342;10.802;2023-03-31T09:42:04;11.90;99.90
11152;DHT22;5630;49.342;10.802;2023-03-31T09:44:40;12.30;99.90
11152;DHT22;5630;49.342;10.802;2023-03-31T09:49:39;13.10;99.90
11152;DHT22;5630;49.342;10.802;2023-03-31T09:55:27;13.50;99.90
11152;DHT22;5630;49.342;10.802;2023-03-31T09:57:59;13.70;99.90
11152;DHT22;5630;49.342;10.802;2023-03-31T10:00:26;13.70;99.90
11152;DHT22;5630;49.342;10.802;2023-03-31T10:02:53;13.90;99.90
11152;DHT22;5630;49.342;10.802;2023-03-31T10:05:34;13.90;99.90
11152;DHT22;5630;49.342;10.802;2023-03-31T10:13:15;14.30;99.90
11152;DHT22;5630;49.342;10.802;2023-03-31T10:15:41;14.30;99.90
11152;DHT22;5630;49.342;10.802;2023-03-31T10:18:14;14.20;99.90
11152;DHT22;5630;49.342;10.802;2023-03-31T10:20:48;14.40;99.90
11152;DHT22;5630;49.342;10.802;2023-03-31T10:23:15;14.40;99.90
11152;DHT22;5630;49.342;10.802;2023-03-31T10:25:42;14.40;99.90
11152;DHT22;5630;49.342;10.802;2023-03-31T10:28:12;14.50;99.90
11152;DHT22;5630;49.342;10.802;2023-03-31T10:30:50;14.50;99.90
11152;DHT22;5630;49.342;10.802;2023-03-31T10:33:19;14.60;99.90
11152;DHT22;5630;49.342;10.802;2023-03-31T10:35:54;14.70;99.90
11152;DHT22;5630;49.342;10.802;2023-03-31T10:38:46;14.60;99.90
11152;DHT22;5630;49.342;10.802;2023-03-31T10:41:25;15.00;99.90
11152;DHT22;5630;49.342;10.802;2023-03-31T10:43:56;14.90;99.90
11152;DHT22;5630;49.342;10.802;2023-03-31T11:17:46;15.10;99.90
11152;DHT22;5630;49.342;10.802;2023-03-31T11:20:29;14.00;99.90
11152;DHT22;5630;49.342;10.802;2023-03-31T11:26:00;14.10;99.90
11152;DHT22;5630;49.342;10.802;2023-03-31T11:36:32;14.60;99.90
11152;DHT22;5630;49.342;10.802;2023-03-31T11:41:49;14.40;99.90
11152;DHT22;5630;49.342;10.802;2023-03-31T11:44:18;14.00;99.90
11152;DHT22;5630;49.342;10.802;2023-03-31T11:46:59;13.20;99.90
11152;DHT22;5630;49.342;10.802;2023-03-31T11:49:28;12.90;99.90
11152;DHT22;5630;49.342;10.802;2023-03-31T11:52:16;12.50;99.90
11152;DHT22;5630;49.342;10.802;2023-03-31T11:55:02;12.60;99.90
11152;DHT22;5630;49.342;10.802;2023-03-31T12:00:21;12.70;99.90
11152;DHT22;5630;49.342;10.802;2023-03-31T12:05:26;13.20;99.90
11152;DHT22;5630;49.342;10.802;2023-03-31T12:08:12;13.40;99.90
11152;DHT22;5630;49.342;10.802;2023-03-31T12:10:49;13.30;99.90
11152;DHT22;5630;49.342;10.802;2023-03-31T12:19:01;13.60;99.90
11152;DHT22;5630;49.342;10.802;2023-03-31T12:21:29;13.80;99.90
11152;DHT22;5630;49.342;10.802;2023-03-31T12:23:56;14.00;99.90
11152;DHT22;5630;49.342;10.802;2023-03-31T12:26:36;14.10;99.90
11152;DHT22;5630;49.342;10.802;2023-03-31T12:31:53;14.20;99.90
11152;DHT22;5630;49.342;10.802;2023-03-31T12:34:20;14.10;99.90
11152;DHT22;5630;49.342;10.802;2023-03-31T12:37:28;14.00;99.90
11152;DHT22;5630;49.342;10.802;2023-03-31T12:40:16;14.20;99.90
11152;DHT22;5630;49.342;10.802;2023-03-31T12:42:56;14.30;99.90
11152;DHT22;5630;49.342;10.802;2023-03-31T12:45:27;14.40;99.90
11152;DHT22;5630;49.342;10.802;2023-03-31T12:51:09;14.30;99.90
11152;DHT22;5630;49.342;10.802;2023-03-31T12:54:05;13.80;99.90
11152;DHT22;5630;49.342;10.802;2023-03-31T13:07:02;11.20;99.90
11152;DHT22;5630;49.342;10.802;2023-03-31T13:12:17;11.50;99.90
11152;DHT22;5630;49.342;10.802;2023-03-31T13:14:45;11.80;99.90
11152;DHT22;5630;49.342;10.802;2023-03-31T13:17:25;12.00;99.90
11152;DHT22;5630;49.342;10.802;2023-03-31T13:19:53;12.40;99.90
11152;DHT22;5630;49.342;10.802;2023-03-31T13:28:17;12.70;99.90
11152;DHT22;5630;49.342;10.802;2023-03-31T13:31:02;12.50;99.90
11152;DHT22;5630;49.342;10.802;2023-03-31T13:33:35;12.80;99.90
11152;DHT22;5630;49.342;10.802;2023-03-31T13:44:37;13.60;99.90
11152;DHT22;5630;49.342;10.802;2023-03-31T13:58:57;12.80;99.90
11152;DHT22;5630;49.342;10.802;2023-03-31T14:04:46;12.90;99.90
11152;DHT22;5630;49.342;10.802;2023-03-31T14:07:26;12.60;99.90
11152;DHT22;5630;49.342;10.802;2023-03-31T14:09:53;12.80;99.90
11152;DHT22;5630;49.342;10.802;2023-03-31T14:14:44;12.80;99.90
11152;DHT22;5630;49.342;10.802;2023-03-31T14:17:11;12.80;99.90
11152;DHT22;5630;49.342;10.802;2023-03-31T14:31:02;13.00;99.90
11152;DHT22;5630;49.342;10.802;2023-03-31T14:33:45;13.10;99.90
11152;DHT22;5630;49.342;10.802;2023-03-31T14:39:20;13.30;99.90
11152;DHT22;5630;49.342;10.802;2023-03-31T14:41:54;13.20;99.90
11152;DHT22;5630;49.342;10.802;2023-03-31T14:44:21;13.00;99.90
11152;DHT22;5630;49.342;10.802;2023-03-31T14:46:47;13.10;99.90
11152;DHT22;5630;49.342;10.802;2023-03-31T14:49:19;12.90;99.90
11152;DHT22;5630;49.342;10.802;2023-03-31T14:51:46;12.90;99.90
11152;DHT22;5630;49.342;10.802;2023-03-31T14:54:15;12.90;99.90
11152;DHT22;5630;49.342;10.802;2023-03-31T14:56:44;13.00;99.90
11152;DHT22;5630;49.342;10.802;2023-03-31T14:59:18;13.20;99.90
11152;DHT22;5630;49.342;10.802;2023-03-31T15:01:46;13.20;99.90
11152;DHT22;5630;49.342;10.802;2023-03-31T15:04:14;13.20;99.90
11152;DHT22;5630;49.342;10.802;2023-03-31T15:06:44;13.10;99.90
11152;DHT22;5630;49.342;10.802;2023-03-31T15:09:20;13.20;99.90
11152;DHT22;5630;49.342;10.802;2023-03-31T15:11:47;13.10;99.90
11152;DHT22;5630;49.342;10.802;2023-03-31T15:14:17;13.20;99.90
11152;DHT22;5630;49.342;10.802;2023-03-31T15:16:44;13.10;99.90
11152;DHT22;5630;49.342;10.802;2023-03-31T15:19:23;13.10;99.90
11152;DHT22;5630;49.342;10.802;2023-03-31T15:21:56;12.80;99.90
11152;DHT22;5630;49.342;10.802;2023-03-31T15:24:26;12.90;99.90
11152;DHT22;5630;49.342;10.802;2023-03-31T15:31:58;12.50;99.90
11152;DHT22;5630;49.342;10.802;2023-03-31T15:34:30;12.40;99.90
11152;DHT22;5630;49.342;10.802;2023-03-31T15:36:58;12.40;99.90
11152;DHT22;5630;49.342;10.802;2023-03-31T15:39:27;12.40;99.90
11152;DHT22;5630;49.342;10.802;2023-03-31T15:41:55;12.40;99.90
11152;DHT22;5630;49.342;10.802;2023-03-31T15:46:58;12.40;99.90
11152;DHT22;5630;49.342;10.802;2023-03-31T15:49:25;12.50;99.90
11152;DHT22;5630;49.342;10.802;2023-03-31T15:51:51;12.60;99.90
11152;DHT22;5630;49.342;10.802;2023-03-31T15:54:38;12.60;99.90
11152;DHT22;5630;49.342;10.802;2023-03-31T15:57:06;12.60;99.90
11152;DHT22;5630;49.342;10.802;2023-03-31T15:59:49;12.50;99.90
11152;DHT22;5630;49.342;10.802;2023-03-31T16:02:18;12.40;99.90
11152;DHT22;5630;49.342;10.802;2023-03-31T16:04:49;12.40;99.90
11152;DHT22;5630;49.342;10.802;2023-03-31T16:07:25;12.40;99.90
11152;DHT22;5630;49.342;10.802;2023-03-31T16:10:14;12.30;99.90
11152;DHT22;5630;49.342;10.802;2023-03-31T16:13:05;12.30;99.90
11152;DHT22;5630;49.342;10.802;2023-03-31T16:15:39;12.20;99.90
11152;DHT22;5630;49.342;10.802;2023-03-31T16:18:14;12.30;99.90
11152;DHT22;5630;49.342;10.802;2023-03-31T16:20:48;12.30;99.90
11152;DHT22;5630;49.342;10.802;2023-03-31T16:23:20;12.00;99.90
11152;DHT22;5630;49.342;10.802;2023-03-31T16:25:49;11.90;99.90
11152;DHT22;5630;49.342;10.802;2023-03-31T16:28:25;11.90;99.90
11152;DHT22;5630;49.342;10.802;2023-03-31T16:30:51;11.90;99.90
11152;DHT22;5630;49.342;10.802;2023-03-31T16:33:21;11.80;99.90
11152;DHT22;5630;49.342;10.802;2023-03-31T16:35:51;11.80;99.90
11152;DHT22;5630;49.342;10.802;2023-03-31T16:38:25;11.80;99.90
11152;DHT22;5630;49.342;10.802;2023-03-31T16:40:53;11.80;99.90
11152;DHT22;5630;49.342;10.802;2023-03-31T16:43:25;11.70;99.90
11152;DHT22;5630;49.342;10.802;2023-03-31T16:45:56;11.70;99.90
11152;DHT22;5630;49.342;10.802;2023-03-31T16:48:25;11.70;99.90
11152;DHT22;5630;49.342;10.802;2023-03-31T16:50:56;11.60;99.90
11152;DHT22;5630;49.342;10.802;2023-03-31T16:53:25;11.60;99.90
11152;DHT22;5630;49.342;10.802;2023-03-31T16:55:52;11.50;99.90
11152;DHT22;5630;49.342;10.802;2023-03-31T16:58:18;11.50;99.90
11152;DHT22;5630;49.342;10.802;2023-03-31T17:00:44;11.50;99.90
11152;DHT22;5630;49.342;10.802;2023-03-31T17:03:10;11.50;99.90
11152;DHT22;5630;49.342;10.802;2023-03-31T17:05:41;11.50;99.90
11152;DHT22;5630;49.342;10.802;2023-03-31T17:08:08;11.50;99.90
11152;DHT22;5630;49.342;10.802;2023-03-31T17:10:36;11.50;99.90
11152;DHT22;5630;49.342;10.802;2023-03-31T17:13:02;11.50;99.90
11152;DHT22;5630;49.342;10.802;2023-03-31T17:15:28;11.40;99.90
11152;DHT22;5630;49.342;10.802;2023-03-31T17:17:55;11.40;99.90
11152;DHT22;5630;49.342;10.802;2023-03-31T17:20:26;11.30;99.90
11152;DHT22;5630;49.342;10.802;2023-03-31T17:22:52;11.30;99.90
11152;DHT22;5630;49.342;10.802;2023-03-31T17:25:18;11.30;99.90
11152;DHT22;5630;49.342;10.802;2023-03-31T17:27:44;11.30;99.90
11152;DHT22;5630;49.342;10.802;2023-03-31T17:30:11;11.20;99.90
11152;DHT22;5630;49.342;10.802;2023-03-31T17:32:37;11.30;99.90
11152;DHT22;5630;49.342;10.802;2023-03-31T17:35:03;11.30;99.90
11152;DHT22;5630;49.342;10.802;2023-03-31T17:37:29;11.20;99.90
11152;DHT22;5630;49.342;10.802;2023-03-31T17:39:54;11.20;99.90
11152;DHT22;5630;49.342;10.802;2023-03-31T17:47:15;11.20;99.90
11152;DHT22;5630;49.342;10.802;2023-03-31T17:49:41;11.00;99.90
11152;DHT22;5630;49.342;10.802;2023-03-31T17:52:06;11.00;99.90
11152;DHT22;5630;49.342;10.802;2023-03-31T17:54:32;11.00;99.90
11152;DHT22;5630;49.342;10.802;2023-03-31T17:56:58;11.00;99.90
11152;DHT22;5630;49.342;10.802;2023-03-31T17:59:24;10.70;99.90
11152;DHT22;5630;49.342;10.802;2023-03-31T18:01:50;10.60;99.90
11152;DHT22;5630;49.342;10.802;2023-03-31T18:04:16;10.50;99.90
11152;DHT22;5630;49.342;10.802;2023-03-31T18:09:10;10.40;99.90
11152;DHT22;5630;49.342;10.802;2023-03-31T18:11:35;10.30;99.90
11152;DHT22;5630;49.342;10.802;2023-03-31T18:14:02;10.20;99.90
11152;DHT22;5630;49.342;10.802;2023-03-31T18:16:28;10.10;99.90
11152;DHT22;5630;49.342;10.802;2023-03-31T18:18:55;10.10;99.90
11152;DHT22;5630;49.342;10.802;2023-03-31T18:21:20;10.10;99.90
11152;DHT22;5630;49.342;10.802;2023-03-31T18:23:48;10.00;99.90
11152;DHT22;5630;49.342;10.802;2023-03-31T18:26:17;9.90;99.90
11152;DHT22;5630;49.342;10.802;2023-03-31T18:28:44;9.90;99.90
11152;DHT22;5630;49.342;10.802;2023-03-31T18:31:11;9.80;99.90
11152;DHT22;5630;49.342;10.802;2023-03-31T18:33:37;9.80;99.90
11152;DHT22;5630;49.342;10.802;2023-03-31T18:40:56;9.80;99.90
11152;DHT22;5630;49.342;10.802;2023-03-31T18:43:23;9.70;99.90
11152;DHT22;5630;49.342;10.802;2023-03-31T18:45:54;9.70;99.90
11152;DHT22;5630;49.342;10.802;2023-03-31T18:48:21;9.70;99.90
11152;DHT22;5630;49.342;10.802;2023-03-31T18:50:48;9.60;99.90
11152;DHT22;5630;49.342;10.802;2023-03-31T18:53:15;9.60;99.90
11152;DHT22;5630;49.342;10.802;2023-03-31T18:55:42;9.60;99.90
11152;DHT22;5630;49.342;10.802;2023-03-31T18:58:07;9.60;99.90
11152;DHT22;5630;49.342;10.802;2023-03-31T19:00:33;9.60;99.90
11152;DHT22;5630;49.342;10.802;2023-03-31T19:02:59;9.60;99.90
11152;DHT22;5630;49.342;10.802;2023-03-31T19:05:24;9.60;99.90
11152;DHT22;5630;49.342;10.802;2023-03-31T19:07:50;9.60;99.90
11152;DHT22;5630;49.342;10.802;2023-03-31T19:10:16;9.60;99.90
11152;DHT22;5630;49.342;10.802;2023-03-31T19:12:48;9.60;99.90
11152;DHT22;5630;49.342;10.802;2023-03-31T19:15:14;9.70;99.90
11152;DHT22;5630;49.342;10.802;2023-03-31T19:17:40;9.60;99.90